Terminal Aerodrome Forecast
Issued by NWS

Home | Current Version | Previous Version | Text Only | Print | Product List | Glossary Off
Versions: 1 2 3 4 5 6 7 8 9 10 11 12 13 14 15 16 17

000
FTUS43 KICT 251120
TAFHUT
TAF
KHUT 251120Z 2512/2612 12009KT P6SM OVC200
     FM251500 20010KT P6SM BKN120
     FM252100 33013KT P6SM SCT025 BKN120
     FM260000 36015G22KT P6SM VCSH OVC020
     FM260400 35016KT P6SM VCSH BKN015
     FM260600 35017KT P6SM BKN010=

USA.gov is the U.S. government's official web portal to all federal, state and local government web resources and services.